Portada
METAR-TAF:

METAR-TAF

Aeroports :

Langkawi, Malàisia

latitud: 06-20N, longitud: 099-44E, altitud: 8 m

Observació

L'informe es va fer fa 47 minuts, a les 03:00 UTC
Vent 9 kt del Est, variant entre Nord-Est i Est/Sud-Est
Temperatura 31°C
Humitat 66%
Pressió 1011 hPa
Visibilitat 10 km o més
Escasses núvols a una alçada de 2200 ft

METAR: WMKL 210300Z 09009KT 040V120 9999 FEW022 31/24 Q1011

Hora: 11:47 (03:47 UTC)

Pronòstic

L'informe es va fer fa 4 hores i 47 minuts, a les 23:00 UTC
Pronòstic vàlid del 21 a les 00 UTC al 22 a les 00 UTC
Vent 7 kt del Est
Visibilitat 10 km o més
Escasses núvols a una alçada de 2000 ft
Evolucionant progressivament
l' 21 a les 06 UTC al 21 a les 08 UTC
Vent 3 kt amb direcció variable
Temporalment
l' 21 a les 09 UTC al 21 a les 12 UTC
Visibilitat: 6000 m
Escasses núvols a una alçada de 1700 ft, Cumulonimbus.
tempesta, pluja

TAF: WMKL 202300Z 2100/2200 08007KT 9999 FEW020 BECMG 2106/2108 VRB03KT TEMPO 2109/2112 6000 -TSRA FEW017CB

Observacions i pronòstics meteorològics de més de 4000 aeroports (METAR i TAF).

Les estacions disponibles són els punts grocs i vermells al mapa.

Posi el ratolí al punt desitjat per veure el nom de l'estació.

Feu clic per veure les observacions i els pronòstics meteorològics.

Per canviar el mapa: feu clic els botons verds amb una creu de color negre per apropar; al botó verd amb un guió per allunyar la imatge; o en les fletxes verdes per a mapes adjacents.


METAR-TAF: